Time;durP1;ratioP1;P1;durP2;ratioP2;P2;SDS_P1;SDS_P2;PMS_P1;PMS_P2;Temp;Humidity;BMP_temperature;BMP_pressure;BME280_temperature;BME280_humidity;BME280_pressure;Samples;Min_cycle;Max_cycle;Signal;HPM_P1;HPM_P2
2022/04/24 00:01:25;;;;;;;14.02;10.75;;;;;;;;;;5032037;28;20068;-71
2022/04/24 00:03:51;;;;;;;14.90;9.70;;;;;;;;;;5014265;28;20057;-71
2022/04/24 00:06:17;;;;;;;12.77;9.70;;;;;;;;;;5014183;28;20025;-70
2022/04/24 00:08:43;;;;;;;13.82;10.88;;;;;;;;;;5031275;28;20021;-70
2022/04/24 00:11:09;;;;;;;15.02;11.15;;;;;;;;;;5014097;28;20026;-70
2022/04/24 00:13:37;;;;;;;15.30;10.98;;;;;;;;;;5032029;28;20033;-70
2022/04/24 00:16:03;;;;;;;11.30;9.38;;;;;;;;;;5031767;28;20028;-71
2022/04/24 00:18:30;;;;;;;14.95;9.68;;;;;;;;;;5031274;28;20029;-70
2022/04/24 00:20:56;;;;;;;15.20;9.50;;;;;;;;;;5031993;28;20021;-71
2022/04/24 00:23:22;;;;;;;13.02;10.30;;;;;;;;;;5032133;28;20043;-71
2022/04/24 00:25:48;;;;;;;15.23;10.77;;;;;;;;;;5015143;28;20040;-71
2022/04/24 00:28:14;;;;;;;13.20;10.38;;;;;;;;;;5031593;28;20018;-70
2022/04/24 00:30:40;;;;;;;12.82;10.30;;;;;;;;;;5031917;28;20101;-70
2022/04/24 00:33:06;;;;;;;13.73;10.77;;;;;;;;;;5014064;28;20031;-71
2022/04/24 00:35:32;;;;;;;14.05;10.82;;;;;;;;;;5031714;28;20030;-70
2022/04/24 00:37:58;;;;;;;12.80;10.40;;;;;;;;;;5031045;28;20609;-71
2022/04/24 00:40:24;;;;;;;16.15;11.10;;;;;;;;;;5013904;28;20087;-70
2022/04/24 00:42:50;;;;;;;13.18;10.88;;;;;;;;;;5014024;28;20112;-71
2022/04/24 00:45:16;;;;;;;16.55;11.68;;;;;;;;;;5064986;22;20117;-68
2022/04/24 00:47:43;;;;;;;18.73;13.85;;;;;;;;;;5011063;28;20136;-70
2022/04/24 00:50:09;;;;;;;14.73;11.98;;;;;;;;;;5013785;28;20458;-69
2022/04/24 00:52:36;;;;;;;15.23;12.05;;;;;;;;;;5017593;28;20358;-71
2022/04/24 00:55:02;;;;;;;16.23;11.98;;;;;;;;;;5035314;28;20105;-72
2022/04/24 00:57:28;;;;;;;14.70;11.40;;;;;;;;;;5016524;28;20025;-72
2022/04/24 00:59:54;;;;;;;16.38;12.13;;;;;;;;;;5034917;28;20067;-72
2022/04/24 01:02:20;;;;;;;18.50;12.15;;;;;;;;;;5017378;28;20120;-72
2022/04/24 01:04:46;;;;;;;16.25;12.07;;;;;;;;;;5017248;28;20041;-72
2022/04/24 01:07:12;;;;;;;19.45;13.15;;;;;;;;;;5016434;28;20028;-71
2022/04/24 01:09:39;;;;;;;16.63;13.25;;;;;;;;;;5035162;28;20045;-72
2022/04/24 01:12:06;;;;;;;15.82;11.82;;;;;;;;;;5017257;28;20033;-71
2022/04/24 01:14:32;;;;;;;14.32;11.40;;;;;;;;;;5034739;28;20021;-71
2022/04/24 01:16:59;;;;;;;17.80;14.18;;;;;;;;;;5016695;28;20033;-70
2022/04/24 01:19:25;;;;;;;19.25;13.75;;;;;;;;;;5034336;28;20103;-72
2022/04/24 01:21:51;;;;;;;17.45;13.00;;;;;;;;;;5034867;28;20374;-71
2022/04/24 01:24:18;;;;;;;17.77;13.13;;;;;;;;;;5035012;28;20087;-72
2022/04/24 01:26:45;;;;;;;17.80;13.45;;;;;;;;;;5017105;28;20031;-71
2022/04/24 01:29:11;;;;;;;18.35;13.32;;;;;;;;;;5033877;28;20018;-71
2022/04/24 01:31:38;;;;;;;16.00;12.77;;;;;;;;;;5017032;28;20025;-70
2022/04/24 01:34:04;;;;;;;15.50;12.63;;;;;;;;;;5035082;28;20108;-71
2022/04/24 01:36:30;;;;;;;16.08;12.57;;;;;;;;;;5028904;28;20034;-71
2022/04/24 01:38:57;;;;;;;16.67;12.23;;;;;;;;;;5016169;28;20120;-70
2022/04/24 01:41:23;;;;;;;17.88;12.63;;;;;;;;;;5034645;28;20025;-70
2022/04/24 01:43:49;;;;;;;17.73;14.07;;;;;;;;;;5017057;28;20375;-71
2022/04/24 01:46:16;;;;;;;17.27;14.07;;;;;;;;;;5016554;28;20406;-70
2022/04/24 01:48:42;;;;;;;17.02;12.85;;;;;;;;;;5015847;28;20026;-71
2022/04/24 01:51:09;;;;;;;18.75;13.13;;;;;;;;;;5034336;28;20104;-70
2022/04/24 01:53:36;;;;;;;18.60;13.68;;;;;;;;;;5016403;28;20033;-71
2022/04/24 01:56:03;;;;;;;19.77;14.38;;;;;;;;;;5016403;28;20025;-71
2022/04/24 01:58:29;;;;;;;17.48;13.60;;;;;;;;;;5033412;28;20025;-72
2022/04/24 02:00:55;;;;;;;21.27;13.73;;;;;;;;;;5034110;28;20591;-71
2022/04/24 02:03:22;;;;;;;20.80;14.32;;;;;;;;;;5034193;28;20045;-72
2022/04/24 02:05:48;;;;;;;20.60;15.07;;;;;;;;;;5016500;28;20112;-71
2022/04/24 02:08:14;;;;;;;21.13;14.68;;;;;;;;;;5015812;28;20025;-71
2022/04/24 02:10:41;;;;;;;18.55;13.75;;;;;;;;;;5016346;28;20399;-71
2022/04/24 02:13:07;;;;;;;16.75;13.00;;;;;;;;;;5035048;28;20025;-71
2022/04/24 02:15:34;;;;;;;16.38;13.48;;;;;;;;;;5019580;28;20090;-71
2022/04/24 02:18:00;;;;;;;16.85;14.00;;;;;;;;;;5018084;28;20025;-71
2022/04/24 02:20:26;;;;;;;17.70;13.57;;;;;;;;;;5019385;28;20068;-70
2022/04/24 02:22:55;;;;;;;16.83;13.43;;;;;;;;;;5036191;28;20399;-71
2022/04/24 02:25:21;;;;;;;17.05;13.32;;;;;;;;;;5016930;28;20099;-72
2022/04/24 02:27:47;;;;;;;19.70;14.52;;;;;;;;;;5034753;28;20030;-71
2022/04/24 02:30:13;;;;;;;18.65;13.38;;;;;;;;;;5035739;28;20021;-71
2022/04/24 02:32:39;;;;;;;17.10;13.13;;;;;;;;;;5018743;28;20026;-71
2022/04/24 02:35:06;;;;;;;17.40;12.25;;;;;;;;;;5036653;28;20025;-72
2022/04/24 02:37:32;;;;;;;17.60;13.35;;;;;;;;;;5000843;28;20034;-71
2022/04/24 02:39:58;;;;;;;18.73;14.13;;;;;;;;;;4997263;28;20523;-71
2022/04/24 02:42:24;;;;;;;21.17;14.25;;;;;;;;;;5014661;28;20036;-71
2022/04/24 02:44:51;;;;;;;20.17;14.48;;;;;;;;;;4996768;28;20468;-71
2022/04/24 02:47:17;;;;;;;17.20;13.02;;;;;;;;;;4996388;28;20077;-71
2022/04/24 02:49:43;;;;;;;17.13;13.30;;;;;;;;;;4997137;28;20022;-71
2022/04/24 02:52:09;;;;;;;20.50;14.50;;;;;;;;;;5015512;28;20077;-71
2022/04/24 02:54:35;;;;;;;19.77;14.25;;;;;;;;;;4997730;28;20034;-70
2022/04/24 02:57:01;;;;;;;18.95;13.05;;;;;;;;;;4995646;28;20061;-69
2022/04/24 02:59:29;;;;;;;17.85;13.23;;;;;;;;;;4995630;28;20029;-70
2022/04/24 03:01:55;;;;;;;17.85;13.27;;;;;;;;;;4995716;28;20638;-70
2022/04/24 03:04:21;;;;;;;17.40;13.57;;;;;;;;;;4995606;28;20076;-69
2022/04/24 03:06:47;;;;;;;17.33;13.95;;;;;;;;;;5013013;28;20024;-70
2022/04/24 03:09:13;;;;;;;21.80;14.40;;;;;;;;;;5012221;28;20056;-70
2022/04/24 03:11:39;;;;;;;16.85;13.18;;;;;;;;;;4995330;28;20065;-70
2022/04/24 03:14:05;;;;;;;20.33;13.77;;;;;;;;;;5012363;28;20502;-71
2022/04/24 03:16:31;;;;;;;18.33;14.10;;;;;;;;;;4995294;28;20030;-70
2022/04/24 03:18:57;;;;;;;19.88;14.30;;;;;;;;;;5010885;28;20411;-70
2022/04/24 03:21:24;;;;;;;21.52;14.98;;;;;;;;;;5011777;28;20026;-70
2022/04/24 03:23:50;;;;;;;17.80;13.85;;;;;;;;;;5012706;28;20025;-70
2022/04/24 03:26:16;;;;;;;19.80;13.48;;;;;;;;;;5012723;28;20065;-70
2022/04/24 03:28:42;;;;;;;18.50;13.73;;;;;;;;;;5012031;28;20029;-71
2022/04/24 03:31:08;;;;;;;19.38;13.85;;;;;;;;;;5011399;28;20018;-70
2022/04/24 03:33:35;;;;;;;20.08;14.52;;;;;;;;;;5011553;28;20052;-69
2022/04/24 03:36:01;;;;;;;20.48;13.82;;;;;;;;;;5014491;28;20401;-70
2022/04/24 03:38:27;;;;;;;21.67;14.43;;;;;;;;;;5013629;28;20442;-70
2022/04/24 03:40:53;;;;;;;20.88;14.27;;;;;;;;;;5014615;28;20083;-71
2022/04/24 03:43:19;;;;;;;18.20;13.10;;;;;;;;;;5032101;28;20032;-71
2022/04/24 03:45:45;;;;;;;18.42;13.75;;;;;;;;;;5014189;28;20030;-71
2022/04/24 03:48:11;;;;;;;16.10;12.98;;;;;;;;;;5031403;28;20032;-70
2022/04/24 03:50:37;;;;;;;19.52;13.68;;;;;;;;;;5014413;28;20028;-72
2022/04/24 03:53:03;;;;;;;17.00;13.52;;;;;;;;;;5014228;28;20491;-71
2022/04/24 03:55:29;;;;;;;19.17;13.90;;;;;;;;;;5032212;28;20501;-70
2022/04/24 03:57:55;;;;;;;19.17;13.18;;;;;;;;;;5013662;28;20147;-71
2022/04/24 04:00:21;;;;;;;17.45;14.13;;;;;;;;;;5032376;28;20022;-71
2022/04/24 04:02:48;;;;;;;17.70;13.82;;;;;;;;;;5014385;28;20127;-71
2022/04/24 04:05:16;;;;;;;17.63;13.52;;;;;;;;;;5014239;28;20040;-71
2022/04/24 04:07:43;;;;;;;16.77;12.85;;;;;;;;;;5013656;28;20375;-71
2022/04/24 04:10:09;;;;;;;17.50;12.80;;;;;;;;;;5032093;28;20013;-70
2022/04/24 04:12:35;;;;;;;17.52;13.05;;;;;;;;;;5014404;28;20109;-72
2022/04/24 04:15:05;;;;;;;17.48;13.18;;;;;;;;;;5014275;28;20112;-72
2022/04/24 04:17:32;;;;;;;16.90;12.75;;;;;;;;;;5013472;28;20036;-72
2022/04/24 04:19:58;;;;;;;16.63;12.25;;;;;;;;;;5014163;28;20025;-72
2022/04/24 04:22:24;;;;;;;16.73;12.60;;;;;;;;;;5031727;28;20096;-71
2022/04/24 04:24:50;;;;;;;17.05;12.63;;;;;;;;;;5013767;28;20495;-72
2022/04/24 04:27:16;;;;;;;17.42;12.15;;;;;;;;;;5013154;28;20411;-70
2022/04/24 04:29:42;;;;;;;16.02;11.88;;;;;;;;;;5013965;28;20384;-70
2022/04/24 04:32:08;;;;;;;15.10;10.90;;;;;;;;;;5031609;28;20096;-70
2022/04/24 04:34:34;;;;;;;15.70;12.13;;;;;;;;;;5013755;28;20025;-72
2022/04/24 04:37:00;;;;;;;16.17;11.38;;;;;;;;;;5019319;28;20032;-71
2022/04/24 04:39:26;;;;;;;15.82;12.23;;;;;;;;;;4993767;28;20116;-71
2022/04/24 04:41:53;;;;;;;15.40;11.52;;;;;;;;;;4994526;28;20022;-70
2022/04/24 04:44:19;;;;;;;16.60;11.48;;;;;;;;;;4994802;28;20056;-71
2022/04/24 04:46:45;;;;;;;12.55;10.02;;;;;;;;;;5012679;28;20460;-69
2022/04/24 04:49:11;;;;;;;15.07;11.73;;;;;;;;;;5011713;28;20026;-70
2022/04/24 04:51:37;;;;;;;15.38;11.63;;;;;;;;;;5013022;28;20018;-70
2022/04/24 04:54:02;;;;;;;15.77;12.27;;;;;;;;;;5013906;28;20032;-70
2022/04/24 04:56:28;;;;;;;16.42;11.00;;;;;;;;;;5013205;28;20026;-71
2022/04/24 04:58:54;;;;;;;15.15;11.32;;;;;;;;;;5011843;28;20381;-70
2022/04/24 05:01:20;;;;;;;15.65;11.63;;;;;;;;;;5011822;28;20049;-71
2022/04/24 05:03:47;;;;;;;13.30;11.35;;;;;;;;;;4994815;28;20037;-72
2022/04/24 05:06:13;;;;;;;14.05;11.77;;;;;;;;;;4994979;28;20076;-72
2022/04/24 05:08:39;;;;;;;13.57;11.38;;;;;;;;;;4993930;28;20030;-72
2022/04/24 05:11:05;;;;;;;16.08;12.80;;;;;;;;;;5011816;28;20080;-72
2022/04/24 05:13:31;;;;;;;13.88;11.10;;;;;;;;;;5011710;28;20068;-73
2022/04/24 05:15:57;;;;;;;16.25;10.77;;;;;;;;;;4994305;28;20026;-71
2022/04/24 05:18:23;;;;;;;15.18;12.57;;;;;;;;;;5014409;28;20102;-71
2022/04/24 05:20:50;;;;;;;13.68;10.50;;;;;;;;;;5013685;28;20464;-71
2022/04/24 05:23:16;;;;;;;17.77;12.55;;;;;;;;;;5013787;28;20021;-71
2022/04/24 05:25:42;;;;;;;16.25;12.18;;;;;;;;;;5013529;28;20519;-71
2022/04/24 05:28:08;;;;;;;14.13;11.82;;;;;;;;;;5012860;28;20320;-71
2022/04/24 05:30:34;;;;;;;14.57;11.70;;;;;;;;;;5031119;28;20022;-71
2022/04/24 05:33:00;;;;;;;14.43;12.02;;;;;;;;;;5030976;28;20024;-71
2022/04/24 05:35:26;;;;;;;18.15;12.20;;;;;;;;;;5013141;28;20310;-70
2022/04/24 05:37:52;;;;;;;16.13;11.38;;;;;;;;;;5015072;28;20021;-71
2022/04/24 05:40:18;;;;;;;14.63;11.82;;;;;;;;;;5034429;28;20060;-71
2022/04/24 05:42:46;;;;;;;14.35;10.93;;;;;;;;;;5015944;28;20064;-71
2022/04/24 05:45:14;;;;;;;12.10;10.27;;;;;;;;;;5013029;28;20033;-71
2022/04/24 05:47:42;;;;;;;13.88;11.60;;;;;;;;;;5013750;28;20040;-71
2022/04/24 05:50:08;;;;;;;13.95;11.45;;;;;;;;;;4997650;28;20014;-71
2022/04/24 05:52:34;;;;;;;13.05;10.98;;;;;;;;;;5019474;28;20112;-72
2022/04/24 05:55:00;;;;;;;13.15;10.63;;;;;;;;;;5033858;28;20026;-69
2022/04/24 05:57:26;;;;;;;15.30;11.10;;;;;;;;;;5015124;28;20545;-69
2022/04/24 05:59:52;;;;;;;14.52;11.65;;;;;;;;;;5033871;28;20022;-69
2022/04/24 06:02:18;;;;;;;13.77;11.02;;;;;;;;;;5016127;28;20589;-68
2022/04/24 06:04:44;;;;;;;14.98;11.77;;;;;;;;;;5033844;28;20069;-69
2022/04/24 06:07:10;;;;;;;14.00;11.05;;;;;;;;;;5033160;28;20051;-72
2022/04/24 06:09:36;;;;;;;13.48;10.95;;;;;;;;;;5033721;28;20029;-69
2022/04/24 06:12:02;;;;;;;15.65;12.35;;;;;;;;;;5033749;28;20026;-70
2022/04/24 06:14:28;;;;;;;16.02;12.27;;;;;;;;;;5015603;28;20032;-69
2022/04/24 06:16:55;;;;;;;14.60;11.65;;;;;;;;;;5016000;28;20037;-69
2022/04/24 06:19:21;;;;;;;12.82;10.98;;;;;;;;;;5015324;28;20056;-70
2022/04/24 06:21:47;;;;;;;16.15;11.40;;;;;;;;;;5028337;28;20103;-71
2022/04/24 06:24:13;;;;;;;14.75;10.93;;;;;;;;;;5025571;28;20036;-71
2022/04/24 06:26:41;;;;;;;15.35;11.70;;;;;;;;;;5015606;28;20024;-71
2022/04/24 06:29:07;;;;;;;12.60;10.20;;;;;;;;;;5028582;28;20025;-70
2022/04/24 06:31:33;;;;;;;12.65;10.27;;;;;;;;;;5018717;28;20026;-71
2022/04/24 06:33:59;;;;;;;12.98;10.55;;;;;;;;;;5023188;28;20026;-71
2022/04/24 06:36:25;;;;;;;14.93;10.95;;;;;;;;;;5001192;28;20018;-71
2022/04/24 06:38:51;;;;;;;12.93;10.50;;;;;;;;;;4995272;28;20076;-71
2022/04/24 06:41:17;;;;;;;14.55;11.77;;;;;;;;;;5013456;28;20025;-71
2022/04/24 06:43:43;;;;;;;14.43;11.02;;;;;;;;;;5013385;28;20026;-71
2022/04/24 06:46:09;;;;;;;14.25;10.68;;;;;;;;;;5014031;28;20088;-71
2022/04/24 06:48:36;;;;;;;13.73;11.10;;;;;;;;;;5012265;28;20026;-70
2022/04/24 06:51:02;;;;;;;14.27;10.52;;;;;;;;;;5013504;28;20432;-70
2022/04/24 06:53:29;;;;;;;13.77;11.65;;;;;;;;;;4995595;28;20381;-72
2022/04/24 06:55:56;;;;;;;12.85;11.30;;;;;;;;;;4995540;28;20033;-72
2022/04/24 06:58:24;;;;;;;16.02;11.77;;;;;;;;;;5012298;28;20041;-71
2022/04/24 07:00:52;;;;;;;15.07;11.32;;;;;;;;;;4997032;28;20045;-70
2022/04/24 07:03:21;;;;;;;14.90;11.15;;;;;;;;;;5011558;28;20033;-71
2022/04/24 07:05:47;;;;;;;16.27;11.90;;;;;;;;;;5019932;28;20057;-71
2022/04/24 07:08:13;;;;;;;16.58;12.02;;;;;;;;;;5003686;28;20462;-71
2022/04/24 07:10:40;;;;;;;16.42;11.65;;;;;;;;;;5013166;28;20033;-72
2022/04/24 07:13:06;;;;;;;13.30;11.23;;;;;;;;;;5013031;28;20029;-70
2022/04/24 07:15:39;;;;;;;13.50;10.95;;;;;;;;;;4995320;28;20018;-71
2022/04/24 07:18:06;;;;;;;15.60;11.68;;;;;;;;;;4994648;28;20524;-70
2022/04/24 07:20:32;;;;;;;14.63;12.75;;;;;;;;;;5012785;28;20487;-71
2022/04/24 07:23:01;;;;;;;14.73;11.57;;;;;;;;;;4995333;28;20030;-72
2022/04/24 07:25:28;;;;;;;15.35;11.38;;;;;;;;;;4994929;28;20032;-71
2022/04/24 07:27:55;;;;;;;15.65;11.85;;;;;;;;;;4994296;28;20434;-72
2022/04/24 07:30:22;;;;;;;15.48;11.40;;;;;;;;;;5012851;28;20106;-72
2022/04/24 07:32:48;;;;;;;12.38;10.07;;;;;;;;;;4994976;28;20026;-71
2022/04/24 07:35:18;;;;;;;12.75;10.82;;;;;;;;;;5012688;28;20112;-72
2022/04/24 07:37:44;;;;;;;13.60;11.20;;;;;;;;;;5016902;28;20025;-73
2022/04/24 07:40:11;;;;;;;12.40;10.32;;;;;;;;;;5031936;28;20033;-69
2022/04/24 07:42:53;;;;;;;14.35;11.60;;;;;;;;;;5014322;28;20053;-71
2022/04/24 07:45:19;;;;;;;14.35;11.02;;;;;;;;;;5031986;28;20083;-73
2022/04/24 07:47:46;;;;;;;14.93;12.38;;;;;;;;;;5024963;28;20064;-72
2022/04/24 07:50:12;;;;;;;16.33;13.63;;;;;;;;;;5017971;28;20028;-70
2022/04/24 07:52:38;;;;;;;14.43;11.40;;;;;;;;;;5010697;28;20395;-71
2022/04/24 07:55:04;;;;;;;18.70;13.70;;;;;;;;;;5016240;28;20030;-71
2022/04/24 07:57:30;;;;;;;16.05;11.48;;;;;;;;;;5022594;28;20423;-71
2022/04/24 07:59:56;;;;;;;16.33;11.77;;;;;;;;;;5023149;28;20108;-71
2022/04/24 08:02:22;;;;;;;14.52;11.82;;;;;;;;;;5016525;28;20030;-71
2022/04/24 08:04:48;;;;;;;15.65;12.20;;;;;;;;;;5021770;28;20040;-73
2022/04/24 08:07:15;;;;;;;15.20;11.75;;;;;;;;;;5013015;28;20538;-70
2022/04/24 08:09:42;;;;;;;17.83;13.35;;;;;;;;;;5013568;28;20022;-70
2022/04/24 08:12:08;;;;;;;14.85;12.07;;;;;;;;;;5021862;28;20471;-72
2022/04/24 08:14:34;;;;;;;13.98;11.88;;;;;;;;;;5014366;28;20044;-71
2022/04/24 08:17:00;;;;;;;21.55;15.73;;;;;;;;;;5013220;28;20021;-71
2022/04/24 08:19:26;;;;;;;15.15;12.43;;;;;;;;;;5013621;28;20065;-70
2022/04/24 08:21:52;;;;;;;15.13;12.07;;;;;;;;;;5013390;28;20476;-72
2022/04/24 08:24:19;;;;;;;17.35;12.40;;;;;;;;;;5013980;28;20026;-71
2022/04/24 08:26:45;;;;;;;17.83;12.73;;;;;;;;;;4997396;28;20017;-71
2022/04/24 08:29:10;;;;;;;16.27;13.32;;;;;;;;;;5012916;28;20033;-70
2022/04/24 08:31:36;;;;;;;16.27;13.02;;;;;;;;;;5027733;28;20032;-71
2022/04/24 08:34:02;;;;;;;15.27;13.57;;;;;;;;;;5022322;28;20102;-70
2022/04/24 08:36:28;;;;;;;17.98;13.23;;;;;;;;;;5029720;28;20029;-71
2022/04/24 08:38:54;;;;;;;18.00;13.65;;;;;;;;;;5012492;28;20365;-69
2022/04/24 08:41:21;;;;;;;18.35;13.85;;;;;;;;;;5012974;28;20383;-71
2022/04/24 08:43:47;;;;;;;18.30;14.00;;;;;;;;;;4995538;28;20076;-71
2022/04/24 08:46:13;;;;;;;17.33;13.90;;;;;;;;;;5012712;28;20033;-71
2022/04/24 08:48:41;;;;;;;16.98;13.85;;;;;;;;;;5017813;28;20026;-70
2022/04/24 08:51:09;;;;;;;15.63;12.73;;;;;;;;;;5003123;28;20022;-73
2022/04/24 08:53:36;;;;;;;15.98;12.68;;;;;;;;;;5022428;28;20076;-72
2022/04/24 08:56:02;;;;;;;13.93;10.90;;;;;;;;;;5015128;28;20081;-72
2022/04/24 08:58:30;;;;;;;14.00;10.57;;;;;;;;;;5026483;28;20029;-72
2022/04/24 09:00:56;;;;;;;13.02;9.77;;;;;;;;;;5014538;28;20014;-74
2022/04/24 09:03:22;;;;;;;10.80;8.88;;;;;;;;;;5025834;28;20079;-72
2022/04/24 09:05:48;;;;;;;14.50;8.32;;;;;;;;;;5040237;28;20093;-74
2022/04/24 09:08:14;;;;;;;14.02;8.13;;;;;;;;;;5015975;28;20033;-73
2022/04/24 09:10:50;;;;;;;8.77;7.70;;;;;;;;;;5028182;28;20029;-73
2022/04/24 09:16:37;;;;;;;10.95;6.97;;;;;;;;;;5000437;28;20113;-74
2022/04/24 09:19:04;;;;;;;13.13;7.50;;;;;;;;;;5018252;28;20028;-74
2022/04/24 09:21:30;;;;;;;9.52;8.05;;;;;;;;;;5012970;28;20071;-72
2022/04/24 09:24:00;;;;;;;10.88;8.27;;;;;;;;;;5011009;28;20017;-72
2022/04/24 09:26:26;;;;;;;14.88;8.40;;;;;;;;;;5018790;28;20483;-73
2022/04/24 09:28:52;;;;;;;10.90;8.45;;;;;;;;;;5029980;28;20113;-74
2022/04/24 09:31:18;;;;;;;9.90;7.75;;;;;;;;;;5002894;28;20096;-72
2022/04/24 09:33:44;;;;;;;12.10;8.20;;;;;;;;;;5023080;28;20561;-73
2022/04/24 09:36:11;;;;;;;12.82;8.98;;;;;;;;;;5027581;28;20029;-73
2022/04/24 09:38:44;;;;;;;11.48;8.65;;;;;;;;;;5021024;28;20483;-74
2022/04/24 09:41:17;;;;;;;13.82;9.13;;;;;;;;;;5019544;28;20063;-74
2022/04/24 09:43:43;;;;;;;13.23;8.27;;;;;;;;;;5033896;28;20029;-72
2022/04/24 09:46:09;;;;;;;12.23;8.93;;;;;;;;;;5033727;28;20236;-70
2022/04/24 09:48:35;;;;;;;13.70;8.50;;;;;;;;;;5020871;28;20130;-72
2022/04/24 09:51:01;;;;;;;10.90;8.75;;;;;;;;;;5030902;28;20437;-72
2022/04/24 09:53:28;;;;;;;12.65;8.57;;;;;;;;;;5019887;28;20017;-72
2022/04/24 09:55:55;;;;;;;11.73;8.23;;;;;;;;;;5040050;28;20074;-71
2022/04/24 09:58:22;;;;;;;9.07;7.38;;;;;;;;;;5021962;28;20512;-77
2022/04/24 10:00:49;;;;;;;9.95;8.15;;;;;;;;;;5036365;28;20031;-72
2022/04/24 10:03:16;;;;;;;11.57;8.23;;;;;;;;;;5039044;28;20078;-71
2022/04/24 10:05:43;;;;;;;12.43;8.95;;;;;;;;;;5039355;28;20478;-72
2022/04/24 10:08:09;;;;;;;12.27;9.93;;;;;;;;;;5039008;28;20013;-71
2022/04/24 10:10:36;;;;;;;12.50;10.20;;;;;;;;;;5040017;28;20110;-71
2022/04/24 10:13:02;;;;;;;15.40;10.02;;;;;;;;;;5045608;28;20494;-72
2022/04/24 10:15:30;;;;;;;12.55;9.85;;;;;;;;;;5031291;28;20037;-74
2022/04/24 10:18:16;;;;;;;14.38;11.27;;;;;;;;;;5003629;28;20061;-72
2022/04/24 10:20:51;;;;;;;15.55;12.25;;;;;;;;;;5009708;28;20483;-75
2022/04/24 10:23:27;;;;;;;13.95;11.15;;;;;;;;;;5015206;28;20510;-75
2022/04/24 10:25:53;;;;;;;17.10;10.95;;;;;;;;;;5013927;28;20506;-75
2022/04/24 10:28:20;;;;;;;14.30;11.60;;;;;;;;;;5017943;28;20025;-75
2022/04/24 10:30:57;;;;;;;15.02;11.85;;;;;;;;;;5023142;28;20544;-75
2022/04/24 10:33:33;;;;;;;17.02;11.50;;;;;;;;;;5033504;28;20427;-75
2022/04/24 10:36:02;;;;;;;19.40;12.45;;;;;;;;;;5041223;28;20080;-76
2022/04/24 10:38:29;;;;;;;14.75;10.45;;;;;;;;;;4999174;28;20088;-74
2022/04/24 10:41:03;;;;;;;12.85;9.15;;;;;;;;;;5015753;28;20060;-74
2022/04/24 10:43:46;;;;;;;11.52;8.35;;;;;;;;;;5029385;28;20426;-75
2022/04/24 10:46:19;;;;;;;13.65;8.57;;;;;;;;;;5027152;28;20048;-75
2022/04/24 10:48:46;;;;;;;11.02;7.80;;;;;;;;;;5029816;28;20459;-75
2022/04/24 10:51:12;;;;;;;11.60;8.15;;;;;;;;;;5038866;28;20040;-75
2022/04/24 10:53:52;;;;;;;12.15;8.57;;;;;;;;;;5023995;28;20022;-75
2022/04/24 10:56:18;;;;;;;12.13;8.43;;;;;;;;;;5013226;28;20030;-75
2022/04/24 10:58:44;;;;;;;11.65;8.85;;;;;;;;;;5028581;28;20432;-75
2022/04/24 11:01:13;;;;;;;11.65;8.57;;;;;;;;;;5013628;28;20020;-76
2022/04/24 11:03:43;;;;;;;12.45;8.73;;;;;;;;;;5002130;28;20073;-75
2022/04/24 11:06:38;;;;;;;11.48;8.98;;;;;;;;;;5025971;28;20396;-74
2022/04/24 11:09:12;;;;;;;12.85;9.00;;;;;;;;;;4996957;28;20057;-75
2022/04/24 11:11:56;;;;;;;12.93;9.27;;;;;;;;;;5012706;28;20057;-75
2022/04/24 11:14:25;;;;;;;17.75;9.77;;;;;;;;;;5012329;28;20056;-74
2022/04/24 11:16:52;;;;;;;11.93;9.82;;;;;;;;;;5020317;28;20394;-75
2022/04/24 11:19:22;;;;;;;12.48;9.38;;;;;;;;;;5023939;28;20018;-72
2022/04/24 11:21:53;;;;;;;15.45;11.27;;;;;;;;;;5005131;28;20052;-70
2022/04/24 11:24:19;;;;;;;17.17;13.05;;;;;;;;;;5021790;28;20488;-72
2022/04/24 11:26:49;;;;;;;15.65;13.43;;;;;;;;;;5021155;28;20028;-71
2022/04/24 11:29:14;;;;;;;17.70;14.13;;;;;;;;;;5022557;28;20022;-73
2022/04/24 11:31:48;;;;;;;18.67;14.55;;;;;;;;;;5023312;28;20036;-72
2022/04/24 11:34:16;;;;;;;16.80;13.82;;;;;;;;;;5003048;28;20030;-71
2022/04/24 11:36:43;;;;;;;20.88;14.60;;;;;;;;;;5021307;28;20075;-71
2022/04/24 11:39:09;;;;;;;21.33;13.60;;;;;;;;;;5019280;28;20029;-71
2022/04/24 11:41:36;;;;;;;15.20;12.93;;;;;;;;;;5021492;28;20387;-74
2022/04/24 11:44:03;;;;;;;19.35;14.38;;;;;;;;;;5022580;28;20160;-73
2022/04/24 11:52:03;;;;;;;16.85;14.23;;;;;;;;;;5021719;28;20025;-71
2022/04/24 11:54:29;;;;;;;15.45;13.63;;;;;;;;;;5022017;28;20108;-71
2022/04/24 11:56:55;;;;;;;19.77;14.48;;;;;;;;;;5020424;28;20021;-73
2022/04/24 11:59:22;;;;;;;18.40;13.20;;;;;;;;;;5020809;28;20109;-72
2022/04/24 12:01:58;;;;;;;17.08;12.32;;;;;;;;;;5019430;28;20506;-71
2022/04/24 12:04:26;;;;;;;15.80;12.68;;;;;;;;;;5017429;28;20029;-70
2022/04/24 12:06:59;;;;;;;15.52;12.43;;;;;;;;;;5008490;28;20022;-69
2022/04/24 12:09:25;;;;;;;14.82;12.68;;;;;;;;;;4999307;28;20018;-72
2022/04/24 12:11:54;;;;;;;16.20;13.60;;;;;;;;;;5018833;28;20045;-71
2022/04/24 12:14:26;;;;;;;16.58;13.98;;;;;;;;;;5004830;28;20036;-71
2022/04/24 12:16:55;;;;;;;19.90;15.57;;;;;;;;;;5012375;28;20029;-71
2022/04/24 12:19:21;;;;;;;19.65;14.95;;;;;;;;;;5023791;28;20175;-71
2022/04/24 12:21:48;;;;;;;17.25;14.82;;;;;;;;;;5014678;28;20029;-71
2022/04/24 12:24:14;;;;;;;16.70;13.95;;;;;;;;;;5025759;28;20051;-73
2022/04/24 12:26:54;;;;;;;17.67;14.15;;;;;;;;;;5015717;28;20026;-73
2022/04/24 12:29:20;;;;;;;20.58;15.07;;;;;;;;;;5023767;28;20025;-73
2022/04/24 12:31:47;;;;;;;16.77;13.13;;;;;;;;;;5010574;28;20030;-73
2022/04/24 12:34:13;;;;;;;17.55;13.70;;;;;;;;;;5027366;28;20302;-72
2022/04/24 12:36:48;;;;;;;18.67;14.63;;;;;;;;;;5033120;28;20045;-74
2022/04/24 12:39:15;;;;;;;15.77;14.07;;;;;;;;;;5003541;28;20017;-75
2022/04/24 12:41:41;;;;;;;16.95;14.40;;;;;;;;;;5009567;28;20117;-75
2022/04/24 12:44:07;;;;;;;18.98;15.50;;;;;;;;;;5002730;28;20056;-75
2022/04/24 12:46:34;;;;;;;17.83;13.15;;;;;;;;;;5010588;28;20025;-73
2022/04/24 12:49:03;;;;;;;18.38;13.70;;;;;;;;;;5028404;28;20021;-74
2022/04/24 12:51:29;;;;;;;19.67;15.20;;;;;;;;;;5031041;28;20117;-74
2022/04/24 12:53:56;;;;;;;19.30;15.57;;;;;;;;;;5027978;28;20058;-74
2022/04/24 12:56:22;;;;;;;17.35;14.77;;;;;;;;;;5027154;28;20021;-73
2022/04/24 12:58:48;;;;;;;22.13;16.30;;;;;;;;;;5027666;28;20515;-73
2022/04/24 13:01:14;;;;;;;21.23;14.75;;;;;;;;;;5028914;28;20026;-71
2022/04/24 13:03:41;;;;;;;17.42;14.20;;;;;;;;;;5026893;28;20033;-74
2022/04/24 13:06:07;;;;;;;16.98;14.55;;;;;;;;;;5028241;28;20107;-73
2022/04/24 13:08:33;;;;;;;20.15;13.57;;;;;;;;;;5030350;28;20476;-74
2022/04/24 13:10:59;;;;;;;17.92;13.75;;;;;;;;;;5029949;28;20025;-73
2022/04/24 13:13:25;;;;;;;17.92;15.35;;;;;;;;;;5031282;28;20026;-77
2022/04/24 13:18:37;;;;;;;21.30;16.77;;;;;;;;;;5027658;28;20040;-73
2022/04/24 13:21:03;;;;;;;24.67;18.00;;;;;;;;;;5031527;28;20024;-72
2022/04/24 13:23:29;;;;;;;27.00;18.77;;;;;;;;;;5041579;28;20033;-72
2022/04/24 13:25:55;;;;;;;27.30;20.27;;;;;;;;;;5034636;28;20029;-73
2022/04/24 13:28:21;;;;;;;27.38;21.58;;;;;;;;;;5037174;28;20108;-71
2022/04/24 13:30:50;;;;;;;25.80;19.83;;;;;;;;;;5035848;28;20056;-73
2022/04/24 13:33:19;;;;;;;25.30;19.80;;;;;;;;;;5041156;28;20022;-73
2022/04/24 13:35:45;;;;;;;25.58;20.00;;;;;;;;;;5021576;28;20025;-73
2022/04/24 13:38:17;;;;;;;29.60;23.20;;;;;;;;;;5036512;28;20037;-71
2022/04/24 13:40:43;;;;;;;27.73;21.63;;;;;;;;;;5029559;28;20022;-70
2022/04/24 13:43:09;;;;;;;24.75;19.85;;;;;;;;;;5035932;28;20468;-72
2022/04/24 13:45:36;;;;;;;31.58;24.58;;;;;;;;;;5033036;28;20124;-68
2022/04/24 13:48:02;;;;;;;29.02;21.50;;;;;;;;;;5037792;28;20028;-71
2022/04/24 13:50:29;;;;;;;31.73;25.00;;;;;;;;;;5020021;28;20080;-71
2022/04/24 13:52:56;;;;;;;28.35;23.23;;;;;;;;;;5026171;28;20032;-72
2022/04/24 13:55:23;;;;;;;34.05;25.15;;;;;;;;;;5018349;28;20075;-70
2022/04/24 13:57:49;;;;;;;39.72;27.60;;;;;;;;;;5023458;28;20475;-71
2022/04/24 14:00:15;;;;;;;33.33;24.83;;;;;;;;;;5023606;28;20029;-72
2022/04/24 14:02:41;;;;;;;24.38;19.08;;;;;;;;;;5034149;28;20048;-72
2022/04/24 14:05:08;;;;;;;19.83;15.73;;;;;;;;;;5037966;28;20021;-72
2022/04/24 14:07:34;;;;;;;19.10;16.02;;;;;;;;;;5036340;28;20025;-69
2022/04/24 14:10:00;;;;;;;19.35;14.73;;;;;;;;;;5038968;28;20437;-71
2022/04/24 14:12:26;;;;;;;16.40;13.15;;;;;;;;;;5016204;28;20018;-71
2022/04/24 14:14:52;;;;;;;17.65;13.95;;;;;;;;;;5041885;28;20038;-70
2022/04/24 14:17:18;;;;;;;22.60;15.32;;;;;;;;;;5037046;28;20025;-73
2022/04/24 14:19:44;;;;;;;18.92;16.10;;;;;;;;;;5038203;28;20028;-74
2022/04/24 14:22:10;;;;;;;19.73;15.60;;;;;;;;;;5034758;28;20104;-74
2022/04/24 14:24:36;;;;;;;22.58;18.45;;;;;;;;;;5039142;28;20036;-73
2022/04/24 14:27:02;;;;;;;15.85;12.57;;;;;;;;;;5037276;28;20028;-71
2022/04/24 14:29:28;;;;;;;19.45;15.70;;;;;;;;;;5033083;28;20041;-68